Brant — 5BBK2 — position and weather

sailwx.info

Track history (hours):
 
Tides and Currents Weather Stations Pressure Air Temp Water Temp Dewpoint Dewpoint Depression Visibility Wind Speed Wind Dir Waves Ship Positions

Brant

Last reported at 2017-Apr-13 13:46 UTC. Time now 2017-Apr-24 11:30 UTC.
Position N 45°28' W 073°30'.
Warning: this ship's position is 10 days out of date.

Length 185 m; draft 8.1 m.

Type: Cargo ship. MMSI: 212372000.

Date/timePositionNaut miles runAvg speedWind from/ knotsBaromVisibWave heightAir tempDewpointWater temp
2017-Apr-13 13:46N 45°28' W 073°30'2 6.6
2017-Apr-13 13:26N 45°26' W 073°30'4 2.8
2017-Apr-13 12:04N 45°24' W 073°35'0 4.1
2017-Apr-13 11:59N 45°24' W 073°36'3 5.7
2017-Apr-13 11:30N 45°25' W 073°40'3 5.4
2017-Apr-13 11:01N 45°24' W 073°43'611.0
2017-Apr-13 10:31N 45°22' W 073°50'4 8.4
2017-Apr-13 09:59N 45°19' W 073°55'0 0.5
2017-Apr-13 09:30N 45°19' W 073°55'1 1.1
2017-Apr-13 08:56N 45°18' W 073°56'1 1.4
2017-Apr-13 08:23N 45°18' W 073°56'  
Track history (hours):
 
Tides and Currents Weather Stations Pressure Air Temp Water Temp Dewpoint Dewpoint Depression Visibility Wind Speed Wind Dir Waves Ship Positions

Brant

Last reported at 2017-Apr-13 13:46 UTC. Time now 2017-Apr-24 11:30 UTC.
Position N 45°28' W 073°30'.
Warning: this ship's position is 10 days out of date.

Length 185 m; draft 8.1 m.

Type: Cargo ship. MMSI: 212372000.

Date/timePositionNaut miles runAvg speedWind from/ knotsBaromVisibWave heightAir tempDewpointWater temp
2017-Apr-13 13:46N 45°28' W 073°30'2 6.6
2017-Apr-13 13:26N 45°26' W 073°30'4 2.8
2017-Apr-13 12:04N 45°24' W 073°35'0 4.1
2017-Apr-13 11:59N 45°24' W 073°36'3 5.7
2017-Apr-13 11:30N 45°25' W 073°40'3 5.4
2017-Apr-13 11:01N 45°24' W 073°43'611.0
2017-Apr-13 10:31N 45°22' W 073°50'4 8.4
2017-Apr-13 09:59N 45°19' W 073°55'0 0.5
2017-Apr-13 09:30N 45°19' W 073°55'1 1.1
2017-Apr-13 08:56N 45°18' W 073°56'1 1.4
2017-Apr-13 08:23N 45°18' W 073°56'  

Dump ship's entire track history